Aérodrome :
LOGIN :

S'inscrire | Disclaimer

   EN    FR    IT 

 










Légende :    VFR   VFR Marginal   IFR   IFR Intensif   IFR Très Intensif
Visi : 
Plafond : 
>= 8 km
>= 3000ft
5 à 8 km
1000 à 3000 ft
1500m à 5 km
500 à 1000 ft
800 à 1500m
200 à 500 ft
< 800m
< 200 ft
Symboles :   Orages  Brouillard  Fortes neiges  Fortes précipitations  Vent > 20 kt
SIGMETs :   Divers  Orages  Givrage  Turbulence  Onde Orograph.  Cendres Volcan.







- Altitude de l'aérodrome : 1325 ft
- Code IATA : EBU
- Voir les cartes d'approche


LFMH - St-Etienne Boutheon

DERNIER METAR :
  • 220700Z AUTO 33004KT 290V020 CAVOK 13/09 Q1020 NOSIG

METARs EXPIRÉS :
  • 220630Z AUTO VRB02KT CAVOK 12/09 Q1020 NOSIG
  • 220600Z AUTO 00000KT CAVOK 12/09 Q1019 TEMPO 3000 BR
  • 220530Z AUTO 17001KT CAVOK 08/08 Q1019 TEMPO 3000 BR
  • 220500Z AUTO 00000KT 5000 BR NSC 06/06 Q1019 TEMPO 0500 BCFG
  • 220430Z AUTO VRB01KT 3700 BR NSC 05/05 Q1019 TEMPO 0500 BCFG

TAF AMD TAF LFMH
Valide du 22 à 03h jusqu'au 23 à 03h UTC


220343Z 2203/2303 VRB03KT CAVOK
TEMPO 2203/2207 3000 BR
PROB40 2203/2206 0500 BCFG
BECMG 2207/2209 BKN035
BECMG 2209/2212 01006KT SCT060
BECMG 2217/2219 VRB02KT
ATIS : +33 4 77 36 17 51
Pas de NOTAMs connus pour ce terrain.



MET'MAP, la Météo Aéronautique d'un coup d'oeil ! - Copyright ORBIFLY Décembre 2007 - Disclaimer

ORBIFLY MET'MAP TEAM :

Programmation & Développement : Alexandra Zaïnal
Conception & Développement : Baudouin d'Aumeries
Co-Programmation & Développement : Marc-Olivier Méhu
Soutien technique & logistique : Manuel Goepfert

Contact : metmap@orbifly.com




SOURCES & CREDITS :

   NOAA